createdAt,value
2022-11-05T00:00:41.759Z,101013.59
2022-11-05T00:04:05.054Z,101013.59
2022-11-05T00:07:38.225Z,101016.28
2022-11-05T00:10:42.721Z,101018.81
2022-11-05T00:14:05.362Z,101019.75
2022-11-05T00:17:09.963Z,101020.63
2022-11-05T00:20:14.758Z,101018.06
2022-11-05T00:23:37.451Z,101027.69
2022-11-05T00:26:41.596Z,101026.91
2022-11-05T00:29:45.855Z,101033.88
2022-11-05T00:32:51.104Z,101028.81
2022-11-05T00:35:55.641Z,101027.06
2022-11-05T00:39:00.068Z,101029.50
2022-11-05T00:42:23.540Z,101024.28
2022-11-05T00:45:30.074Z,101019.91
2022-11-05T00:48:53.137Z,101028.63
2022-11-05T00:52:16.057Z,101026.06
2022-11-05T00:55:24.334Z,101037.41
2022-11-05T00:58:29.270Z,101034.78
2022-11-05T01:01:34.028Z,101031.53
2022-11-05T01:04:38.674Z,101037.72
2022-11-05T01:07:43.133Z,101040.38
2022-11-05T01:10:51.721Z,101043.09
2022-11-05T01:13:56.262Z,101038.78
2022-11-05T01:17:00.584Z,101042.28
2022-11-05T01:20:05.779Z,101045.84
2022-11-05T01:23:13.785Z,101039.84
2022-11-05T01:26:18.724Z,101048.47
2022-11-05T01:29:23.309Z,101046.78
2022-11-05T01:32:30.664Z,101056.34
2022-11-05T01:35:35.260Z,101049.41
2022-11-05T01:38:39.611Z,101049.34
2022-11-05T01:41:43.873Z,101046.78
2022-11-05T01:45:04.555Z,101050.28
2022-11-05T01:48:25.741Z,101051.22
2022-11-05T01:51:31.014Z,101039.09
2022-11-05T01:54:36.008Z,101051.22
2022-11-05T01:57:41.054Z,101046.97
2022-11-05T02:00:45.732Z,101051.34
2022-11-05T02:03:53.544Z,101053.09
2022-11-05T02:06:59.181Z,101048.91
2022-11-05T02:10:07.156Z,101049.75
2022-11-05T02:13:11.953Z,101054.16
2022-11-05T02:16:46.622Z,101055.06
2022-11-05T02:20:42.462Z,101052.44
2022-11-05T02:24:27.166Z,101056.88
2022-11-05T02:28:15.024Z,101049.09
2022-11-05T02:31:40.749Z,101056.03
2022-11-05T02:35:03.004Z,101055.25
2022-11-05T02:38:31.416Z,101062.28
2022-11-05T02:42:05.297Z,101059.78
2022-11-05T02:45:19.574Z,101065.06
2022-11-05T02:48:40.954Z,101063.41
2022-11-05T02:51:56.196Z,101061.78
2022-11-05T02:55:31.228Z,101066.22
2022-11-05T02:58:35.799Z,101057.56
2022-11-05T03:01:41.616Z,101066.41
2022-11-05T03:04:46.530Z,101071.63
2022-11-05T03:08:01.419Z,101062.97
2022-11-05T03:11:18.069Z,101063.06
2022-11-05T03:14:49.200Z,101066.50
2022-11-05T03:18:03.833Z,101072.63
2022-11-05T03:21:27.825Z,101069.25
2022-11-05T03:24:40.968Z,101075.44
2022-11-05T03:27:50.163Z,101072.09
2022-11-05T03:30:58.240Z,101071.22
2022-11-05T03:34:05.771Z,101067.78
2022-11-05T03:37:11.645Z,101071.22
2022-11-05T03:40:18.298Z,101073.88
2022-11-05T03:43:28.607Z,101073.97
2022-11-05T03:46:49.244Z,101077.50
2022-11-05T03:50:22.612Z,101079.19
2022-11-05T03:53:31.691Z,101074.91
2022-11-05T03:56:56.981Z,101073.97
2022-11-05T04:00:01.687Z,101073.13
2022-11-05T04:03:06.075Z,101086.16
2022-11-05T04:06:29.592Z,101082.66
2022-11-05T04:09:52.610Z,101098.31
2022-11-05T04:13:15.674Z,101092.22
2022-11-05T04:16:38.819Z,101093.94
2022-11-05T04:20:03.457Z,101100.09
2022-11-05T04:23:26.506Z,101116.69
2022-11-05T04:26:30.742Z,101111.50
2022-11-05T04:29:53.394Z,101109.72
2022-11-05T04:33:10.939Z,101116.72
2022-11-05T04:36:16.059Z,101119.38
2022-11-05T04:39:21.483Z,101115.88
2022-11-05T04:42:25.736Z,101121.03
2022-11-05T04:45:34.389Z,101120.97
2022-11-05T04:48:38.952Z,101118.47
2022-11-05T04:51:43.296Z,101115.88
2022-11-05T04:54:47.461Z,101116.72
2022-11-05T04:57:53.462Z,101116.75
2022-11-05T05:00:57.829Z,101109.81
2022-11-05T05:04:01.765Z,101116.13
2022-11-05T05:07:06.154Z,101117.94
2022-11-05T05:10:11.808Z,101112.72
2022-11-05T05:13:16.339Z,101111.84
2022-11-05T05:16:24.911Z,101114.50
2022-11-05T05:19:29.075Z,101116.31
2022-11-05T05:22:33.608Z,101105.91
2022-11-05T05:25:37.884Z,101107.69
2022-11-05T05:28:42.141Z,101120.81
2022-11-05T05:31:46.381Z,101117.41
2022-11-05T05:34:51.834Z,101120.00
2022-11-05T05:37:56.856Z,101116.56
2022-11-05T05:41:01.438Z,101129.66
2022-11-05T05:44:06.776Z,101119.28
2022-11-05T05:47:11.143Z,101123.66
2022-11-05T05:50:15.490Z,101127.28
2022-11-05T05:53:20.045Z,101136.00
2022-11-05T05:56:24.157Z,101139.53
2022-11-05T05:59:28.643Z,101150.00
2022-11-05T06:02:32.824Z,101150.13
2022-11-05T06:05:37.423Z,101144.91
2022-11-05T06:08:42.709Z,101147.56
2022-11-05T06:11:47.239Z,101144.97
2022-11-05T06:14:51.387Z,101148.44
2022-11-05T06:17:55.837Z,101145.06
2022-11-05T06:21:14.163Z,101151.22
2022-11-05T06:24:18.431Z,101153.84
2022-11-05T06:27:23.755Z,101148.69
2022-11-05T06:30:28.008Z,101152.16
2022-11-05T06:33:32.415Z,101156.47
2022-11-05T06:36:36.726Z,101165.13
2022-11-05T06:39:41.143Z,101166.00
2022-11-05T06:42:46.929Z,101166.91
2022-11-05T06:45:51.827Z,101173.03
2022-11-05T06:48:56.332Z,101176.53
2022-11-05T06:52:00.761Z,101174.81
2022-11-05T06:55:06.024Z,101176.53
2022-11-05T06:58:10.731Z,101174.72
2022-11-05T07:01:15.319Z,101187.72
2022-11-05T07:04:19.804Z,101185.00
2022-11-05T07:07:24.274Z,101197.97
2022-11-05T07:10:29.087Z,101194.50
2022-11-05T07:13:33.823Z,101195.28
2022-11-05T07:16:39.334Z,101196.97
2022-11-05T07:19:43.878Z,101195.19
2022-11-05T07:22:48.394Z,101195.13
2022-11-05T07:25:52.758Z,101195.09
2022-11-05T07:28:57.285Z,101208.97
2022-11-05T07:32:01.811Z,101214.19
2022-11-05T07:35:08.693Z,101219.34
2022-11-05T07:38:13.204Z,101215.81
2022-11-05T07:41:17.294Z,101214.84
2022-11-05T07:44:22.246Z,101213.00
2022-11-05T07:47:26.848Z,101218.09
2022-11-05T07:50:35.109Z,101221.41
2022-11-05T07:53:44.919Z,101218.59
2022-11-05T07:56:50.006Z,101218.34
2022-11-05T07:59:54.696Z,101230.31
2022-11-05T08:03:14.442Z,101238.00
2022-11-05T08:06:19.084Z,101239.50
2022-11-05T08:09:23.437Z,101242.56
2022-11-05T08:12:27.670Z,101241.28
2022-11-05T08:15:32.868Z,101251.47
2022-11-05T08:18:37.704Z,101260.75
2022-11-05T08:21:42.515Z,101263.00
2022-11-05T08:24:46.852Z,101265.28
2022-11-05T08:28:13.568Z,101265.94
2022-11-05T08:31:18.207Z,101267.50
2022-11-05T08:34:22.287Z,101270.06
2022-11-05T08:37:26.305Z,101271.88
2022-11-05T08:40:32.968Z,101260.63
2022-11-05T08:43:37.556Z,101262.22
2022-11-05T08:46:42.083Z,101265.63
2022-11-05T08:49:46.695Z,101261.13
2022-11-05T08:52:50.627Z,101271.44
2022-11-05T08:55:58.332Z,101268.53
2022-11-05T08:59:02.615Z,101267.34
2022-11-05T09:02:09.903Z,101262.75
2022-11-05T09:05:14.827Z,101252.16
2022-11-05T09:08:19.597Z,101250.16
2022-11-05T09:11:33.134Z,101256.06
2022-11-05T09:14:47.753Z,101255.03
2022-11-05T09:17:52.522Z,101253.94
2022-11-05T09:20:56.622Z,101263.31
2022-11-05T09:24:01.226Z,101257.97
2022-11-05T09:27:06.823Z,101263.13
2022-11-05T09:30:13.649Z,101256.00
2022-11-05T09:33:24.986Z,101264.38
2022-11-05T09:36:29.234Z,101260.66
2022-11-05T09:39:33.905Z,101255.16
2022-11-05T09:42:43.731Z,101256.88
2022-11-05T09:45:54.108Z,101264.59
2022-11-05T09:49:06.108Z,101259.81
2022-11-05T09:52:19.912Z,101273.31
2022-11-05T09:55:42.465Z,101265.06
2022-11-05T09:59:21.814Z,101264.06
2022-11-05T10:02:47.576Z,101262.66
2022-11-05T10:05:53.999Z,101271.66
2022-11-05T10:09:18.934Z,101273.28
2022-11-05T10:12:53.688Z,101271.31
2022-11-05T10:16:09.255Z,101265.13
2022-11-05T10:19:24.787Z,101265.31
2022-11-05T10:22:29.223Z,101254.06
2022-11-05T10:25:39.438Z,101233.75
2022-11-05T10:28:43.818Z,101214.09
2022-11-05T10:31:48.921Z,101210.97
2022-11-05T10:34:57.164Z,101209.06
2022-11-05T10:38:02.556Z,101216.94
2022-11-05T10:41:28.812Z,101215.53
2022-11-05T10:44:48.497Z,101211.28
2022-11-05T10:48:49.194Z,101219.19
2022-11-05T10:51:58.074Z,101223.88
2022-11-05T10:55:14.882Z,101216.09
2022-11-05T10:58:29.080Z,101213.69
2022-11-05T11:01:34.221Z,101210.16
2022-11-05T11:04:38.612Z,101205.03
2022-11-05T11:07:43.165Z,101215.19
2022-11-05T11:11:02.215Z,101221.53
2022-11-05T11:14:22.334Z,101216.28
2022-11-05T11:17:32.486Z,101223.84
2022-11-05T11:20:45.529Z,101217.53
2022-11-05T11:23:58.290Z,101226.06
2022-11-05T11:27:06.703Z,101221.66
2022-11-05T11:30:20.175Z,101220.25
2022-11-05T11:33:27.714Z,101213.00
2022-11-05T11:36:48.752Z,101206.47
2022-11-05T11:40:20.971Z,101218.56
2022-11-05T11:43:33.880Z,101221.81
2022-11-05T11:46:42.745Z,101220.47
2022-11-05T11:49:59.220Z,101226.22
2022-11-05T11:53:26.514Z,101208.88
2022-11-05T11:56:43.555Z,101213.69
2022-11-05T12:00:07.767Z,101201.91
2022-11-05T12:03:24.261Z,101210.13
2022-11-05T12:06:54.164Z,101208.53
2022-11-05T12:10:36.446Z,101204.03
2022-11-05T12:14:18.536Z,101199.53
2022-11-05T12:17:51.404Z,101193.66
2022-11-05T12:21:29.459Z,101195.69
2022-11-05T12:25:23.193Z,101195.56
2022-11-05T12:29:17.123Z,101199.31
2022-11-05T12:32:37.343Z,101194.81
2022-11-05T12:35:58.255Z,101173.19
2022-11-05T12:39:37.050Z,101187.38
2022-11-05T12:43:10.515Z,101203.09
2022-11-05T12:47:19.585Z,101202.34
2022-11-05T12:50:49.657Z,101210.25
2022-11-05T12:54:51.429Z,101215.84
2022-11-05T12:58:11.888Z,101211.50
2022-11-05T13:01:33.356Z,101216.44
2022-11-05T13:04:53.283Z,101219.50
2022-11-05T13:08:28.624Z,101221.22
2022-11-05T13:12:03.129Z,101217.72
2022-11-05T13:15:23.592Z,101213.38
2022-11-05T13:18:55.609Z,101222.06
2022-11-05T13:22:17.383Z,101213.78
2022-11-05T13:25:25.624Z,101215.19
2022-11-05T13:28:48.362Z,101206.38
2022-11-05T13:32:02.828Z,101204.66
2022-11-05T13:35:15.953Z,101205.13
2022-11-05T13:38:44.694Z,101215.00
2022-11-05T13:42:01.279Z,101216.09
2022-11-05T13:45:52.199Z,101226.63
2022-11-05T13:49:31.461Z,101229.03
2022-11-05T13:53:09.412Z,101237.63
2022-11-05T13:56:51.981Z,101225.63
2022-11-05T14:00:38.993Z,101222.13
2022-11-05T14:03:52.516Z,101212.38
2022-11-05T14:07:07.187Z,101208.34
2022-11-05T14:10:41.334Z,101208.78
2022-11-05T14:13:50.176Z,101214.41
2022-11-05T14:17:09.981Z,101221.72
2022-11-05T14:20:32.719Z,101226.41
2022-11-05T14:23:40.561Z,101238.16
2022-11-05T14:27:05.210Z,101237.59
2022-11-05T14:30:44.031Z,101232.81
2022-11-05T14:34:10.101Z,101239.28
2022-11-05T14:37:30.086Z,101252.75
2022-11-05T14:40:40.130Z,101248.66
2022-11-05T14:43:58.791Z,101261.09
2022-11-05T14:47:07.754Z,101269.22
2022-11-05T14:50:46.351Z,101274.72
2022-11-05T14:53:57.638Z,101273.13
2022-11-05T14:57:03.010Z,101270.78
2022-11-05T15:00:30.167Z,101277.09
2022-11-05T15:04:01.969Z,101271.97
2022-11-05T15:07:06.314Z,101277.34
2022-11-05T15:10:16.142Z,101273.22
2022-11-05T15:13:37.744Z,101284.56
2022-11-05T15:16:54.614Z,101274.06
2022-11-05T15:20:23.751Z,101278.41
2022-11-05T15:23:39.536Z,101270.53
2022-11-05T15:26:58.286Z,101275.84
2022-11-05T15:30:22.477Z,101277.72
2022-11-05T15:33:27.345Z,101274.19
2022-11-05T15:36:32.421Z,101276.03
2022-11-05T15:39:44.034Z,101274.31
2022-11-05T15:43:19.636Z,101275.28
2022-11-05T15:46:28.584Z,101269.97
2022-11-05T15:49:33.276Z,101263.97
2022-11-05T15:52:45.688Z,101266.66
2022-11-05T15:55:55.730Z,101270.34
2022-11-05T15:59:07.137Z,101268.63
2022-11-05T16:02:25.704Z,101272.97
2022-11-05T16:05:42.181Z,101278.22
2022-11-05T16:08:49.424Z,101282.59
2022-11-05T16:12:14.452Z,101284.44
2022-11-05T16:15:23.481Z,101288.84
2022-11-05T16:18:41.317Z,101292.38
2022-11-05T16:21:55.102Z,101288.97
2022-11-05T16:24:59.367Z,101294.34
2022-11-05T16:28:05.671Z,101289.09
2022-11-05T16:31:09.588Z,101295.25
2022-11-05T16:34:40.824Z,101295.41
2022-11-05T16:37:49.270Z,101298.03
2022-11-05T16:40:56.053Z,101288.53
2022-11-05T16:44:00.424Z,101296.53
2022-11-05T16:47:04.844Z,101294.81
2022-11-05T16:50:25.796Z,101293.97
2022-11-05T16:53:30.200Z,101296.66
2022-11-05T16:56:36.044Z,101295.94
2022-11-05T16:59:40.514Z,101286.41
2022-11-05T17:02:45.813Z,101295.34
2022-11-05T17:05:50.124Z,101290.19
2022-11-05T17:08:54.368Z,101284.94
2022-11-05T17:12:00.731Z,101290.31
2022-11-05T17:15:22.370Z,101294.00
2022-11-05T17:18:27.175Z,101287.03
2022-11-05T17:21:31.825Z,101288.88
2022-11-05T17:24:36.226Z,101292.41
2022-11-05T17:27:40.944Z,101295.06
2022-11-05T17:30:52.167Z,101301.31
2022-11-05T17:33:58.647Z,101306.56
2022-11-05T17:37:03.091Z,101296.84
2022-11-05T17:40:12.453Z,101304.59
2022-11-05T17:43:17.306Z,101301.97
2022-11-05T17:46:22.248Z,101299.38
2022-11-05T17:49:26.730Z,101303.66
2022-11-05T17:52:32.498Z,101308.03
2022-11-05T17:55:36.948Z,101299.38
2022-11-05T17:58:41.499Z,101300.16
2022-11-05T18:01:46.044Z,101301.97
2022-11-05T18:04:50.810Z,101292.28
2022-11-05T18:07:55.567Z,101307.22
2022-11-05T18:11:00.588Z,101308.97
2022-11-05T18:14:05.475Z,101302.03
2022-11-05T18:17:09.643Z,101300.31
2022-11-05T18:20:19.244Z,101297.75
2022-11-05T18:23:24.368Z,101301.31
2022-11-05T18:26:28.877Z,101298.69
2022-11-05T18:29:33.372Z,101298.75
2022-11-05T18:32:38.757Z,101290.81
2022-11-05T18:35:44.792Z,101296.97
2022-11-05T18:38:50.735Z,101301.31
2022-11-05T18:41:54.989Z,101289.94
2022-11-05T18:44:59.781Z,101287.38
2022-11-05T18:48:05.088Z,101292.63
2022-11-05T18:51:14.116Z,101287.50
2022-11-05T18:54:18.433Z,101290.13
2022-11-05T18:57:22.644Z,101291.06
2022-11-05T19:00:27.936Z,101287.56
2022-11-05T19:03:33.608Z,101287.63
2022-11-05T19:06:38.557Z,101274.50
2022-11-05T19:09:42.941Z,101278.97
2022-11-05T19:12:47.174Z,101284.16
2022-11-05T19:15:51.562Z,101285.03
2022-11-05T19:19:00.362Z,101275.44
2022-11-05T19:22:04.917Z,101270.31
2022-11-05T19:25:09.161Z,101276.44
2022-11-05T19:28:13.775Z,101273.81
2022-11-05T19:31:22.614Z,101273.16
2022-11-05T19:34:27.453Z,101271.44
2022-11-05T19:37:31.797Z,101279.31
2022-11-05T19:40:37.622Z,101284.63
2022-11-05T19:43:42.712Z,101282.97
2022-11-05T19:46:47.527Z,101284.75
2022-11-05T19:49:51.878Z,101276.94
2022-11-05T19:52:56.172Z,101275.16
2022-11-05T19:56:17.177Z,101269.13
2022-11-05T19:59:21.534Z,101265.63
2022-11-05T20:02:26.511Z,101267.34
2022-11-05T20:05:33.953Z,101256.88
2022-11-05T20:08:59.409Z,101250.84
2022-11-05T20:12:03.242Z,101256.97
2022-11-05T20:15:08.232Z,101255.28
2022-11-05T20:18:12.920Z,101257.97
2022-11-05T20:21:18.873Z,101262.34
2022-11-05T20:24:25.296Z,101262.44
2022-11-05T20:27:30.230Z,101255.53
2022-11-05T20:30:35.662Z,101252.03
2022-11-05T20:33:41.509Z,101254.69
2022-11-05T20:36:45.608Z,101259.94
2022-11-05T20:39:49.756Z,101264.41
2022-11-05T20:42:54.219Z,101257.47
2022-11-05T20:45:58.870Z,101265.34
2022-11-05T20:49:03.432Z,101257.47
2022-11-05T20:52:07.605Z,101261.84
2022-11-05T20:55:12.240Z,101264.50
2022-11-05T20:58:17.627Z,101255.75
2022-11-05T21:01:22.638Z,101261.00
2022-11-05T21:04:27.372Z,101248.72
2022-11-05T21:07:31.732Z,101249.66
2022-11-05T21:10:35.952Z,101248.72
2022-11-05T21:13:40.438Z,101248.78
2022-11-05T21:16:46.104Z,101252.34
2022-11-05T21:19:50.942Z,101252.34
2022-11-05T21:22:55.721Z,101244.41
2022-11-05T21:26:05.416Z,101247.88
2022-11-05T21:29:10.722Z,101245.25
2022-11-05T21:32:15.021Z,101233.94
2022-11-05T21:35:19.154Z,101233.00
2022-11-05T21:38:23.867Z,101224.34
2022-11-05T21:41:28.653Z,101222.63
2022-11-05T21:44:38.365Z,101227.81
2022-11-05T21:47:44.543Z,101227.81
2022-11-05T21:51:12.305Z,101220.00
2022-11-05T21:54:34.921Z,101226.19
2022-11-05T21:57:59.485Z,101219.16
2022-11-05T22:01:06.420Z,101217.44
2022-11-05T22:04:10.694Z,101220.13
2022-11-05T22:07:28.946Z,101209.63
2022-11-05T22:10:33.557Z,101208.78
2022-11-05T22:13:38.058Z,101200.94
2022-11-05T22:16:42.666Z,101199.25
2022-11-05T22:19:47.192Z,101196.63
2022-11-05T22:22:52.543Z,101188.75
2022-11-05T22:26:01.922Z,101200.09
2022-11-05T22:29:07.497Z,101189.72
2022-11-05T22:32:12.267Z,101186.25
2022-11-05T22:35:17.141Z,101188.88
2022-11-05T22:38:21.607Z,101189.78
2022-11-05T22:41:26.129Z,101190.66
2022-11-05T22:44:30.729Z,101191.59
2022-11-05T22:47:37.681Z,101190.72
2022-11-05T22:50:42.347Z,101184.63
2022-11-05T22:53:46.730Z,101188.16
2022-11-05T22:56:52.558Z,101188.16
2022-11-05T22:59:56.772Z,101190.00
2022-11-05T23:03:02.771Z,101184.75
2022-11-05T23:06:56.809Z,101179.41
2022-11-05T23:10:19.684Z,101179.41
2022-11-05T23:13:24.336Z,101179.41
2022-11-05T23:16:47.868Z,101182.03
2022-11-05T23:20:11.149Z,101185.53
2022-11-05T23:23:39.148Z,101172.44
2022-11-05T23:26:53.000Z,101162.94
2022-11-05T23:30:00.170Z,101155.03
2022-11-05T23:33:07.390Z,101160.22
2022-11-05T23:36:31.509Z,101157.53
2022-11-05T23:39:41.373Z,101154.91
2022-11-05T23:43:06.782Z,101159.09
2022-11-05T23:46:29.563Z,101158.19
2022-11-05T23:49:34.220Z,101150.28
2022-11-05T23:52:38.598Z,101147.72
2022-11-05T23:55:43.162Z,101143.19
2022-11-05T23:58:50.915Z,101144.03
